createdAt,value
2022-09-14T00:00:51.783Z,15.40
2022-09-14T00:03:34.431Z,15.50
2022-09-14T00:06:06.882Z,15.50
2022-09-14T00:08:38.457Z,15.50
2022-09-14T00:11:14.438Z,15.50
2022-09-14T00:13:49.600Z,15.40
2022-09-14T00:16:27.419Z,15.40
2022-09-14T00:19:08.440Z,15.30
2022-09-14T00:21:41.494Z,15.30
2022-09-14T00:24:14.059Z,15.30
2022-09-14T00:26:44.312Z,15.20
2022-09-14T00:29:18.458Z,15.10
2022-09-14T00:31:53.292Z,15.10
2022-09-14T00:34:26.027Z,15.00
2022-09-14T00:36:58.608Z,14.80
2022-09-14T00:39:28.355Z,14.60
2022-09-14T00:41:58.585Z,14.50
2022-09-14T00:45:03.902Z,14.50
2022-09-14T00:47:37.175Z,14.50
2022-09-14T00:50:09.671Z,14.40
2022-09-14T00:52:45.033Z,14.40
2022-09-14T00:55:16.763Z,14.30
2022-09-14T00:58:07.427Z,14.20
2022-09-14T01:00:36.125Z,14.10
2022-09-14T01:03:08.621Z,14.00
2022-09-14T01:06:00.325Z,13.90
2022-09-14T01:08:49.499Z,13.80
2022-09-14T01:11:42.246Z,13.60
2022-09-14T01:14:22.038Z,13.50
2022-09-14T01:17:03.730Z,13.40
2022-09-14T01:19:46.177Z,13.30
2022-09-14T01:22:27.356Z,13.30
2022-09-14T01:25:08.494Z,13.30
2022-09-14T01:27:41.912Z,13.50
2022-09-14T01:30:16.520Z,13.50
2022-09-14T01:32:54.874Z,13.60
2022-09-14T01:35:32.404Z,13.70
2022-09-14T01:38:08.169Z,13.80
2022-09-14T01:40:41.333Z,14.00
2022-09-14T01:43:17.827Z,13.90
2022-09-14T01:45:56.032Z,13.90
2022-09-14T01:48:32.794Z,13.80
2022-09-14T01:51:05.393Z,13.70
2022-09-14T01:53:41.066Z,13.60
2022-09-14T01:56:17.561Z,13.50
2022-09-14T01:58:57.356Z,13.30
2022-09-14T02:01:32.667Z,13.20
2022-09-14T02:04:13.681Z,13.10
2022-09-14T02:06:48.604Z,13.10
2022-09-14T02:09:30.002Z,13.00
2022-09-14T02:12:02.902Z,13.00
2022-09-14T02:14:36.539Z,13.00
2022-09-14T02:17:07.443Z,13.00
2022-09-14T02:19:43.837Z,13.10
2022-09-14T02:22:14.793Z,13.10
2022-09-14T02:24:47.309Z,13.20
2022-09-14T02:27:17.433Z,13.40
2022-09-14T02:29:49.103Z,13.50
2022-09-14T02:32:28.938Z,13.60
2022-09-14T02:35:10.033Z,13.70
2022-09-14T02:37:53.507Z,13.80
2022-09-14T02:40:32.998Z,13.90
2022-09-14T02:43:15.739Z,14.00
2022-09-14T02:45:57.439Z,14.10
2022-09-14T02:48:39.015Z,14.10
2022-09-14T02:51:18.672Z,14.10
2022-09-14T02:53:55.052Z,14.20
2022-09-14T02:56:26.509Z,14.20
2022-09-14T02:58:55.938Z,14.20
2022-09-14T03:01:29.487Z,14.30
2022-09-14T03:04:00.148Z,14.30
2022-09-14T03:06:32.303Z,14.20
2022-09-14T03:09:01.163Z,14.30
2022-09-14T03:11:30.603Z,14.30
2022-09-14T03:14:01.452Z,14.30
2022-09-14T03:16:37.969Z,14.30
2022-09-14T03:19:15.922Z,14.30
2022-09-14T03:21:49.528Z,14.30
2022-09-14T03:24:25.467Z,14.30
2022-09-14T03:27:05.366Z,14.30
2022-09-14T03:29:42.252Z,14.20
2022-09-14T03:32:19.908Z,14.20
2022-09-14T03:34:54.425Z,14.20
2022-09-14T03:37:29.437Z,14.10
2022-09-14T03:40:08.292Z,14.10
2022-09-14T03:42:38.835Z,14.10
2022-09-14T03:45:12.695Z,14.10
2022-09-14T03:47:45.974Z,14.10
2022-09-14T03:50:19.856Z,14.10
2022-09-14T03:52:49.197Z,14.00
2022-09-14T03:55:19.837Z,14.00
2022-09-14T03:57:50.619Z,14.00
2022-09-14T04:00:21.055Z,13.90
2022-09-14T04:02:52.103Z,13.90
2022-09-14T04:05:23.614Z,13.90
2022-09-14T04:07:53.176Z,13.90
2022-09-14T04:10:24.127Z,13.90
2022-09-14T04:12:56.049Z,13.90
2022-09-14T04:15:26.454Z,13.90
2022-09-14T04:17:58.901Z,13.90
2022-09-14T04:20:35.090Z,13.80
2022-09-14T04:23:07.061Z,13.80
2022-09-14T04:25:40.655Z,13.80
2022-09-14T04:28:20.856Z,13.70
2022-09-14T04:31:08.155Z,13.70
2022-09-14T04:33:48.478Z,13.70
2022-09-14T04:36:25.334Z,13.70
2022-09-14T04:38:55.439Z,13.70
2022-09-14T04:41:40.942Z,13.70
2022-09-14T04:44:11.007Z,13.70
2022-09-14T04:46:46.431Z,13.70
2022-09-14T04:49:19.417Z,13.70
2022-09-14T04:51:49.080Z,13.70
2022-09-14T04:54:21.277Z,13.80
2022-09-14T04:57:00.756Z,14.00
2022-09-14T04:59:32.807Z,14.20
2022-09-14T05:02:04.353Z,14.30
2022-09-14T05:04:36.516Z,14.30
2022-09-14T05:07:06.854Z,14.30
2022-09-14T05:09:36.277Z,14.40
2022-09-14T05:12:07.336Z,14.50
2022-09-14T05:14:36.811Z,14.60
2022-09-14T05:17:05.966Z,14.70
2022-09-14T05:19:49.801Z,14.90
2022-09-14T05:22:18.779Z,15.00
2022-09-14T05:24:47.808Z,15.10
2022-09-14T05:27:16.470Z,15.20
2022-09-14T05:29:45.238Z,15.20
2022-09-14T05:32:17.915Z,15.30
2022-09-14T05:34:50.240Z,15.40
2022-09-14T05:37:20.621Z,15.50
2022-09-14T05:39:53.995Z,15.50
2022-09-14T05:42:22.738Z,15.60
2022-09-14T05:44:51.504Z,15.50
2022-09-14T05:47:20.471Z,15.60
2022-09-14T05:49:50.702Z,15.70
2022-09-14T05:52:19.235Z,15.80
2022-09-14T05:54:47.811Z,15.90
2022-09-14T05:57:16.419Z,15.90
2022-09-14T05:59:45.211Z,16.00
2022-09-14T06:02:17.553Z,16.00
2022-09-14T06:04:47.439Z,16.00
2022-09-14T06:07:20.005Z,16.00
2022-09-14T06:09:52.189Z,15.90
2022-09-14T06:12:24.398Z,16.00
2022-09-14T06:14:53.155Z,16.20
2022-09-14T06:17:24.775Z,16.30
2022-09-14T06:19:53.350Z,16.70
2022-09-14T06:22:26.046Z,16.60
2022-09-14T06:24:56.746Z,16.70
2022-09-14T06:27:25.417Z,16.80
2022-09-14T06:29:54.831Z,16.90
2022-09-14T06:32:24.467Z,16.90
2022-09-14T06:34:53.241Z,16.80
2022-09-14T06:37:23.385Z,16.70
2022-09-14T06:39:52.529Z,16.60
2022-09-14T06:42:21.185Z,16.60
2022-09-14T06:44:49.778Z,16.60
2022-09-14T06:47:18.376Z,16.40
2022-09-14T06:49:46.991Z,16.40
2022-09-14T06:52:15.518Z,16.40
2022-09-14T06:54:47.041Z,16.30
2022-09-14T06:57:15.922Z,16.30
2022-09-14T06:59:44.545Z,16.30
2022-09-14T07:02:15.407Z,16.50
2022-09-14T07:04:44.096Z,16.60
2022-09-14T07:07:12.987Z,16.80
2022-09-14T07:09:42.045Z,16.90
2022-09-14T07:12:12.120Z,16.90
2022-09-14T07:14:40.691Z,17.00
2022-09-14T07:17:09.438Z,16.90
2022-09-14T07:19:38.015Z,16.90
2022-09-14T07:22:06.730Z,16.80
2022-09-14T07:24:35.462Z,16.70
2022-09-14T07:27:04.699Z,16.60
2022-09-14T07:29:34.938Z,16.70
2022-09-14T07:32:03.980Z,16.70
2022-09-14T07:34:32.526Z,16.80
2022-09-14T07:37:01.108Z,17.00
2022-09-14T07:39:29.687Z,17.20
2022-09-14T07:41:58.275Z,17.10
2022-09-14T07:44:27.066Z,16.90
2022-09-14T07:46:57.079Z,16.80
2022-09-14T07:49:25.731Z,16.90
2022-09-14T07:51:55.109Z,17.00
2022-09-14T07:54:23.691Z,17.30
2022-09-14T07:56:52.281Z,17.50
2022-09-14T07:59:37.351Z,17.60
2022-09-14T08:02:09.138Z,17.60
2022-09-14T08:04:39.438Z,17.50
2022-09-14T08:07:08.186Z,17.50
2022-09-14T08:09:36.749Z,17.60
2022-09-14T08:12:06.166Z,17.70
2022-09-14T08:14:35.013Z,17.70
2022-09-14T08:17:03.634Z,17.70
2022-09-14T08:19:33.696Z,17.60
2022-09-14T08:22:03.303Z,17.50
2022-09-14T08:24:32.646Z,17.40
2022-09-14T08:27:01.302Z,17.30
2022-09-14T08:29:29.928Z,17.40
2022-09-14T08:31:58.887Z,17.30
2022-09-14T08:34:27.577Z,17.30
2022-09-14T08:36:57.653Z,17.30
2022-09-14T08:39:26.402Z,17.30
2022-09-14T08:41:57.083Z,17.30
2022-09-14T08:44:29.130Z,17.40
2022-09-14T08:47:03.340Z,17.50
2022-09-14T08:49:43.867Z,18.00
2022-09-14T08:52:23.050Z,18.40
2022-09-14T08:54:55.541Z,18.80
2022-09-14T08:57:30.385Z,18.90
2022-09-14T09:00:08.969Z,19.00
2022-09-14T09:03:16.494Z,19.10
2022-09-14T09:05:52.511Z,19.20
2022-09-14T09:08:31.597Z,19.20
2022-09-14T09:11:02.100Z,19.40
2022-09-14T09:13:34.545Z,19.70
2022-09-14T09:16:06.216Z,19.80
2022-09-14T09:18:39.679Z,19.80
2022-09-14T09:21:16.249Z,19.90
2022-09-14T09:23:46.808Z,20.00
2022-09-14T09:26:21.940Z,20.00
2022-09-14T09:28:53.804Z,19.90
2022-09-14T09:31:32.523Z,19.80
2022-09-14T09:34:02.045Z,19.70
2022-09-14T09:36:36.263Z,19.60
2022-09-14T09:39:07.013Z,19.60
2022-09-14T09:41:45.250Z,19.60
2022-09-14T09:44:14.093Z,19.60
2022-09-14T09:46:50.319Z,19.50
2022-09-14T09:49:22.881Z,19.30
2022-09-14T09:51:52.362Z,19.10
2022-09-14T09:54:26.422Z,19.10
2022-09-14T09:56:57.751Z,19.10
2022-09-14T09:59:33.044Z,19.20
2022-09-14T10:02:24.301Z,19.30
2022-09-14T10:05:02.242Z,19.60
2022-09-14T10:07:33.593Z,19.90
2022-09-14T10:10:06.955Z,19.90
2022-09-14T10:12:36.453Z,19.90
2022-09-14T10:15:17.174Z,20.00
2022-09-14T10:18:07.737Z,20.10
2022-09-14T10:20:37.687Z,20.00
2022-09-14T10:23:27.285Z,19.70
2022-09-14T10:26:25.036Z,19.50
2022-09-14T10:28:53.974Z,19.40
2022-09-14T10:31:31.367Z,19.70
2022-09-14T10:34:00.960Z,20.10
2022-09-14T10:36:32.282Z,20.30
2022-09-14T10:39:14.491Z,20.70
2022-09-14T10:41:50.822Z,20.90
2022-09-14T10:44:47.074Z,21.20
2022-09-14T10:47:32.918Z,21.40
2022-09-14T10:50:14.151Z,21.30
2022-09-14T10:52:51.785Z,20.90
2022-09-14T10:55:44.051Z,20.50
2022-09-14T10:58:32.995Z,20.20
2022-09-14T11:01:14.081Z,20.00
2022-09-14T11:04:03.370Z,19.70
2022-09-14T11:06:43.546Z,19.50
2022-09-14T11:09:22.287Z,19.40
2022-09-14T11:11:57.561Z,19.30
2022-09-14T11:14:42.724Z,19.30
2022-09-14T11:17:34.751Z,19.30
2022-09-14T11:20:09.812Z,19.30
2022-09-14T11:22:46.693Z,19.50
2022-09-14T11:25:18.766Z,19.60
2022-09-14T11:27:55.164Z,19.90
2022-09-14T11:30:34.646Z,20.00
2022-09-14T11:33:08.078Z,20.10
2022-09-14T11:35:43.604Z,20.00
2022-09-14T11:38:20.306Z,19.90
2022-09-14T11:40:53.138Z,19.60
2022-09-14T11:43:26.192Z,19.50
2022-09-14T11:46:02.360Z,19.40
2022-09-14T11:48:43.236Z,19.30
2022-09-14T11:51:20.048Z,19.20
2022-09-14T11:53:49.045Z,19.20
2022-09-14T11:56:26.857Z,19.20
2022-09-14T11:58:57.918Z,19.30
2022-09-14T12:01:37.122Z,19.50
2022-09-14T12:04:12.202Z,19.80
2022-09-14T12:06:55.481Z,20.00
2022-09-14T12:09:53.534Z,20.10
2022-09-14T12:12:37.947Z,20.00
2022-09-14T12:15:33.609Z,19.90
2022-09-14T12:18:24.316Z,19.80
2022-09-14T12:21:07.613Z,19.80
2022-09-14T12:23:58.035Z,19.90
2022-09-14T12:26:35.079Z,20.00
2022-09-14T12:29:24.345Z,20.00
2022-09-14T12:32:33.744Z,19.90
2022-09-14T12:35:47.881Z,19.90
2022-09-14T12:38:42.042Z,20.00
2022-09-14T12:41:58.651Z,20.40
2022-09-14T12:44:39.944Z,20.70
2022-09-14T12:47:40.738Z,20.90
2022-09-14T12:50:18.488Z,20.90
2022-09-14T12:52:58.857Z,20.80
2022-09-14T12:55:55.983Z,20.70
2022-09-14T12:58:56.194Z,20.70
2022-09-14T13:01:37.585Z,20.70
2022-09-14T13:04:13.770Z,20.80
2022-09-14T13:06:45.299Z,20.80
2022-09-14T13:09:21.007Z,20.90
2022-09-14T13:11:55.621Z,20.70
2022-09-14T13:14:28.557Z,20.70
2022-09-14T13:16:59.547Z,20.70
2022-09-14T13:19:30.298Z,20.50
2022-09-14T13:22:01.870Z,20.30
2022-09-14T13:24:38.883Z,20.20
2022-09-14T13:27:16.724Z,20.00
2022-09-14T13:29:45.403Z,19.90
2022-09-14T13:32:19.454Z,19.70
2022-09-14T13:34:49.079Z,19.60
2022-09-14T13:37:18.025Z,19.40
2022-09-14T13:39:53.106Z,19.30
2022-09-14T13:42:22.867Z,19.20
2022-09-14T13:44:52.799Z,19.10
2022-09-14T13:47:24.497Z,19.10
2022-09-14T13:49:55.492Z,19.00
2022-09-14T13:52:57.108Z,19.00
2022-09-14T13:55:28.682Z,19.00
2022-09-14T13:58:22.301Z,19.00
2022-09-14T14:00:58.594Z,19.10
2022-09-14T14:03:30.873Z,19.10
2022-09-14T14:06:00.118Z,19.20
2022-09-14T14:08:33.860Z,19.30
2022-09-14T14:11:06.371Z,19.40
2022-09-14T14:13:37.245Z,19.50
2022-09-14T14:16:17.627Z,19.70
2022-09-14T14:18:52.547Z,19.90
2022-09-14T14:21:30.375Z,20.00
2022-09-14T14:24:18.798Z,20.00
2022-09-14T14:26:53.719Z,20.00
2022-09-14T14:29:22.478Z,19.90
2022-09-14T14:31:51.757Z,19.80
2022-09-14T14:34:23.673Z,19.60
2022-09-14T14:36:52.330Z,19.50
2022-09-14T14:39:23.507Z,19.50
2022-09-14T14:41:54.333Z,19.40
2022-09-14T14:44:25.491Z,19.50
2022-09-14T14:46:54.200Z,19.50
2022-09-14T14:49:23.200Z,19.60
2022-09-14T14:51:52.324Z,19.70
2022-09-14T14:54:21.688Z,19.60
2022-09-14T14:56:53.327Z,19.60
2022-09-14T14:59:29.813Z,19.50
2022-09-14T15:01:59.831Z,19.40
2022-09-14T15:04:28.651Z,19.40
2022-09-14T15:06:57.295Z,19.40
2022-09-14T15:09:29.183Z,19.30
2022-09-14T15:11:59.351Z,19.20
2022-09-14T15:14:28.050Z,19.20
2022-09-14T15:17:00.435Z,19.10
2022-09-14T15:19:29.250Z,19.10
2022-09-14T15:22:01.258Z,19.00
2022-09-14T15:24:30.345Z,18.90
2022-09-14T15:27:00.743Z,18.90
2022-09-14T15:29:29.418Z,18.90
2022-09-14T15:31:58.110Z,18.80
2022-09-14T15:34:26.870Z,18.80
2022-09-14T15:36:57.609Z,18.80
2022-09-14T15:39:28.669Z,18.70
2022-09-14T15:42:01.476Z,18.60
2022-09-14T15:44:31.316Z,18.50
2022-09-14T15:47:00.329Z,18.40
2022-09-14T15:49:29.368Z,18.40
2022-09-14T15:51:59.079Z,18.30
2022-09-14T15:54:33.808Z,18.20
2022-09-14T15:57:04.034Z,18.10
2022-09-14T15:59:32.741Z,18.00
2022-09-14T16:02:01.470Z,17.90
2022-09-14T16:04:30.388Z,17.80
2022-09-14T16:06:59.053Z,17.70
2022-09-14T16:09:27.839Z,17.60
2022-09-14T16:12:01.013Z,17.60
2022-09-14T16:14:31.923Z,17.40
2022-09-14T16:17:01.047Z,17.30
2022-09-14T16:19:29.989Z,17.30
2022-09-14T16:21:58.996Z,17.20
2022-09-14T16:24:28.217Z,17.00
2022-09-14T16:26:58.437Z,17.00
2022-09-14T16:29:27.619Z,16.90
2022-09-14T16:31:57.856Z,16.80
2022-09-14T16:34:28.602Z,16.70
2022-09-14T16:36:58.918Z,16.60
2022-09-14T16:39:29.578Z,16.50
2022-09-14T16:42:00.360Z,16.40
2022-09-14T16:44:30.016Z,16.30
2022-09-14T16:47:00.489Z,16.20
2022-09-14T16:49:29.309Z,16.10
2022-09-14T16:52:00.874Z,16.00
2022-09-14T16:54:30.009Z,15.90
2022-09-14T16:56:59.998Z,15.70
2022-09-14T16:59:29.148Z,15.60
2022-09-14T17:01:57.878Z,15.50
2022-09-14T17:04:27.978Z,15.50
2022-09-14T17:06:57.062Z,15.30
2022-09-14T17:09:28.505Z,15.30
2022-09-14T17:11:58.415Z,15.20
2022-09-14T17:14:29.741Z,15.10
2022-09-14T17:16:59.289Z,15.00
2022-09-14T17:19:29.926Z,14.90
2022-09-14T17:21:59.039Z,14.80
2022-09-14T17:24:27.608Z,14.80
2022-09-14T17:26:56.153Z,14.80
2022-09-14T17:29:24.864Z,14.70
2022-09-14T17:31:55.605Z,14.70
2022-09-14T17:34:24.475Z,14.60
2022-09-14T17:36:54.542Z,14.60
2022-09-14T17:39:23.131Z,14.60
2022-09-14T17:41:51.711Z,14.60
2022-09-14T17:44:20.397Z,14.60
2022-09-14T17:46:53.989Z,14.60
2022-09-14T17:49:24.004Z,14.60
2022-09-14T17:51:55.025Z,14.60
2022-09-14T17:54:23.598Z,14.50
2022-09-14T17:56:52.271Z,14.50
2022-09-14T17:59:22.577Z,14.50
2022-09-14T18:01:51.652Z,14.50
2022-09-14T18:04:20.496Z,14.40
2022-09-14T18:06:50.410Z,14.40
2022-09-14T18:09:24.258Z,14.40
2022-09-14T18:11:56.209Z,14.30
2022-09-14T18:14:25.578Z,14.30
2022-09-14T18:16:54.383Z,14.20
2022-09-14T18:19:23.799Z,14.20
2022-09-14T18:21:53.162Z,14.10
2022-09-14T18:24:23.362Z,14.00
2022-09-14T18:26:52.176Z,14.00
2022-09-14T18:29:23.321Z,13.90
2022-09-14T18:31:52.344Z,13.90
2022-09-14T18:34:22.061Z,13.80
2022-09-14T18:36:53.018Z,13.80
2022-09-14T18:39:23.226Z,13.70
2022-09-14T18:41:54.116Z,13.70
2022-09-14T18:44:23.064Z,13.60
2022-09-14T18:46:52.246Z,13.50
2022-09-14T18:49:21.471Z,13.50
2022-09-14T18:51:50.109Z,13.40
2022-09-14T18:54:20.734Z,13.40
2022-09-14T18:56:52.504Z,13.40
2022-09-14T18:59:21.103Z,13.40
2022-09-14T19:01:51.159Z,13.40
2022-09-14T19:04:19.918Z,13.50
2022-09-14T19:06:48.864Z,13.50
2022-09-14T19:09:17.508Z,13.50
2022-09-14T19:11:49.176Z,13.50
2022-09-14T19:14:20.788Z,13.50
2022-09-14T19:17:08.605Z,13.40
2022-09-14T19:19:37.338Z,13.50
2022-09-14T19:22:06.447Z,13.50
2022-09-14T19:24:36.631Z,13.50
2022-09-14T19:27:08.645Z,13.50
2022-09-14T19:29:38.738Z,13.40
2022-09-14T19:32:07.442Z,13.40
2022-09-14T19:34:36.548Z,13.30
2022-09-14T19:37:05.259Z,13.30
2022-09-14T19:39:34.211Z,13.20
2022-09-14T19:42:02.885Z,13.10
2022-09-14T19:44:31.748Z,13.10
2022-09-14T19:47:04.703Z,13.10
2022-09-14T19:49:33.322Z,13.10
2022-09-14T19:52:01.901Z,13.10
2022-09-14T19:54:30.587Z,13.10
2022-09-14T19:56:59.586Z,13.10
2022-09-14T19:59:31.325Z,13.10
2022-09-14T20:02:01.531Z,13.20
2022-09-14T20:04:30.421Z,13.20
2022-09-14T20:06:59.189Z,13.20
2022-09-14T20:09:28.454Z,13.20
2022-09-14T20:11:57.291Z,13.20
2022-09-14T20:14:30.402Z,13.20
2022-09-14T20:17:01.741Z,13.20
2022-09-14T20:19:32.750Z,13.20
2022-09-14T20:22:01.564Z,13.20
2022-09-14T20:24:32.530Z,13.10
2022-09-14T20:27:03.615Z,13.10
2022-09-14T20:29:35.639Z,13.10
2022-09-14T20:32:06.460Z,13.00
2022-09-14T20:34:35.872Z,13.00
2022-09-14T20:37:06.154Z,13.00
2022-09-14T20:39:39.276Z,13.10
2022-09-14T20:42:09.733Z,13.00
2022-09-14T20:44:39.694Z,13.10
2022-09-14T20:47:11.116Z,13.10
2022-09-14T20:49:41.688Z,13.10
2022-09-14T20:52:15.792Z,13.10
2022-09-14T20:54:45.727Z,13.10
2022-09-14T20:57:16.959Z,13.20
2022-09-14T20:59:46.496Z,13.20
2022-09-14T21:02:20.649Z,13.20
2022-09-14T21:04:52.725Z,13.20
2022-09-14T21:07:25.130Z,13.20
2022-09-14T21:09:56.839Z,13.20
2022-09-14T21:12:26.930Z,13.20
2022-09-14T21:14:58.494Z,13.20
2022-09-14T21:17:29.807Z,13.20
2022-09-14T21:20:00.783Z,13.20
2022-09-14T21:22:32.944Z,13.20
2022-09-14T21:25:04.294Z,13.20
2022-09-14T21:27:34.536Z,13.20
2022-09-14T21:30:03.403Z,13.20
2022-09-14T21:32:35.134Z,13.20
2022-09-14T21:35:05.694Z,13.20
2022-09-14T21:37:41.292Z,13.20
2022-09-14T21:40:14.364Z,13.20
2022-09-14T21:42:50.397Z,13.20
2022-09-14T21:45:19.573Z,13.20
2022-09-14T21:47:53.968Z,13.20
2022-09-14T21:50:25.037Z,13.20
2022-09-14T21:52:57.706Z,13.20
2022-09-14T21:55:32.979Z,13.20
2022-09-14T21:58:06.143Z,13.30
2022-09-14T22:00:39.443Z,13.30
2022-09-14T22:03:13.187Z,13.30
2022-09-14T22:05:51.304Z,13.30
2022-09-14T22:08:31.748Z,13.30
2022-09-14T22:11:09.889Z,13.30
2022-09-14T22:13:44.885Z,13.30
2022-09-14T22:16:19.267Z,13.30
2022-09-14T22:18:59.372Z,13.30
2022-09-14T22:21:34.734Z,13.30
2022-09-14T22:24:16.170Z,13.30
2022-09-14T22:26:50.331Z,13.30
2022-09-14T22:29:25.736Z,13.30
2022-09-14T22:32:02.316Z,13.30
2022-09-14T22:34:41.150Z,13.30
2022-09-14T22:37:17.028Z,13.30
2022-09-14T22:39:48.569Z,13.30
2022-09-14T22:42:24.007Z,13.30
2022-09-14T22:44:59.736Z,13.30
2022-09-14T22:47:30.742Z,13.30
2022-09-14T22:50:05.313Z,13.30
2022-09-14T22:52:42.354Z,13.30
2022-09-14T22:55:17.419Z,13.40
2022-09-14T22:57:49.345Z,13.40
2022-09-14T23:00:20.375Z,13.40
2022-09-14T23:02:49.437Z,13.40
2022-09-14T23:05:22.726Z,13.50
2022-09-14T23:07:57.098Z,13.50
2022-09-14T23:10:32.333Z,13.50
2022-09-14T23:13:02.212Z,13.50
2022-09-14T23:15:32.093Z,13.50
2022-09-14T23:18:01.928Z,13.50
2022-09-14T23:20:34.014Z,13.40
2022-09-14T23:23:08.305Z,13.40
2022-09-14T23:25:40.270Z,13.30
2022-09-14T23:28:21.620Z,13.20
2022-09-14T23:30:57.792Z,13.10
2022-09-14T23:33:35.146Z,13.00
2022-09-14T23:37:01.430Z,12.90
2022-09-14T23:39:35.474Z,12.80
2022-09-14T23:42:10.123Z,12.70
2022-09-14T23:44:41.832Z,12.60
2022-09-14T23:47:11.074Z,12.60
2022-09-14T23:49:43.121Z,12.60
2022-09-14T23:52:21.990Z,12.50
2022-09-14T23:54:57.491Z,12.40
2022-09-14T23:57:28.737Z,12.30
2022-09-14T23:59:59.395Z,12.30
